createdAt,value
2018-07-23T00:01:08.432Z,99.90
2018-07-23T00:03:36.582Z,99.90
2018-07-23T00:06:04.808Z,99.90
2018-07-23T00:08:32.972Z,99.90
2018-07-23T00:11:01.144Z,99.90
2018-07-23T00:13:29.331Z,99.90
2018-07-23T00:15:57.502Z,99.90
2018-07-23T00:18:25.710Z,99.90
2018-07-23T00:20:53.847Z,99.90
2018-07-23T00:23:22.047Z,99.90
2018-07-23T00:25:50.191Z,99.90
2018-07-23T00:28:18.363Z,99.90
2018-07-23T00:30:46.512Z,99.90
2018-07-23T00:33:14.684Z,99.90
2018-07-23T00:35:42.860Z,99.90
2018-07-23T00:38:11.020Z,99.90
2018-07-23T00:40:39.195Z,99.90
2018-07-23T00:43:07.356Z,99.90
2018-07-23T00:45:35.534Z,99.90
2018-07-23T00:48:03.693Z,99.90
2018-07-23T00:50:31.948Z,99.90
2018-07-23T00:53:00.099Z,99.90
2018-07-23T00:55:28.248Z,99.90
2018-07-23T00:57:56.413Z,99.90
2018-07-23T01:00:24.586Z,99.90
2018-07-23T01:02:52.845Z,99.90
2018-07-23T01:05:21.049Z,99.90
2018-07-23T01:07:49.237Z,99.90
2018-07-23T01:10:17.450Z,99.90
2018-07-23T01:12:45.603Z,99.90
2018-07-23T01:15:13.922Z,99.90
2018-07-23T01:17:42.081Z,99.90
2018-07-23T01:20:10.248Z,99.90
2018-07-23T01:22:38.408Z,99.90
2018-07-23T01:25:06.589Z,99.90
2018-07-23T01:27:34.750Z,99.90
2018-07-23T01:30:02.923Z,99.90
2018-07-23T01:32:31.076Z,99.90
2018-07-23T01:34:59.224Z,99.90
2018-07-23T01:37:27.400Z,99.90
2018-07-23T01:39:55.556Z,99.90
2018-07-23T01:42:23.714Z,99.90
2018-07-23T01:44:51.867Z,99.90
2018-07-23T01:47:20.066Z,99.90
2018-07-23T01:49:54.657Z,99.90
2018-07-23T01:52:22.825Z,99.90
2018-07-23T01:54:50.989Z,99.90
2018-07-23T01:57:19.167Z,99.90
2018-07-23T01:59:47.436Z,99.90
2018-07-23T02:02:15.595Z,99.90
2018-07-23T02:04:43.758Z,99.90
2018-07-23T02:07:11.915Z,99.90
2018-07-23T02:09:40.068Z,99.90
2018-07-23T02:12:08.239Z,99.90
2018-07-23T02:14:36.413Z,99.90
2018-07-23T02:17:04.636Z,99.90
2018-07-23T02:19:32.791Z,99.90
2018-07-23T02:22:00.963Z,99.90
2018-07-23T02:24:29.114Z,99.90
2018-07-23T02:26:57.286Z,99.90
2018-07-23T02:29:25.565Z,99.90
2018-07-23T02:31:53.724Z,99.90
2018-07-23T02:34:21.885Z,99.90
2018-07-23T02:36:50.037Z,99.90
2018-07-23T02:39:18.456Z,99.90
2018-07-23T02:41:46.631Z,99.90
2018-07-23T02:44:14.804Z,99.90
2018-07-23T02:46:43.192Z,99.90
2018-07-23T02:49:11.345Z,99.90
2018-07-23T02:51:39.499Z,99.90
2018-07-23T02:54:07.649Z,99.90
2018-07-23T02:56:35.830Z,99.90
2018-07-23T02:59:03.976Z,99.90
2018-07-23T03:01:32.168Z,99.90
2018-07-23T03:04:00.322Z,99.90
2018-07-23T03:06:29.468Z,99.90
2018-07-23T03:08:57.884Z,99.90
2018-07-23T03:11:26.367Z,99.90
2018-07-23T03:13:54.605Z,99.90
2018-07-23T03:16:22.762Z,99.90
2018-07-23T03:18:51.322Z,99.90
2018-07-23T03:21:19.634Z,99.90
2018-07-23T03:23:47.805Z,99.90
2018-07-23T03:26:15.968Z,99.90
2018-07-23T03:28:44.435Z,99.90
2018-07-23T03:31:12.584Z,99.90
2018-07-23T03:33:40.741Z,99.90
2018-07-23T03:36:08.928Z,99.90
2018-07-23T03:38:37.075Z,99.90
2018-07-23T03:41:05.223Z,99.90
2018-07-23T03:43:33.408Z,99.90
2018-07-23T03:46:01.576Z,99.90
2018-07-23T03:48:29.720Z,99.90
2018-07-23T03:50:58.159Z,99.90
2018-07-23T03:53:26.315Z,99.90
2018-07-23T03:55:54.469Z,99.90
2018-07-23T03:58:22.645Z,99.90
2018-07-23T04:00:50.790Z,99.90
2018-07-23T04:03:18.974Z,99.90
2018-07-23T04:05:47.132Z,99.90
2018-07-23T04:08:15.292Z,99.90
2018-07-23T04:10:43.506Z,99.90
2018-07-23T04:13:11.588Z,99.90
2018-07-23T04:15:39.748Z,99.90
2018-07-23T04:18:07.899Z,99.90
2018-07-23T04:20:36.708Z,99.90
2018-07-23T04:23:05.791Z,99.90
2018-07-23T04:25:33.968Z,99.90
2018-07-23T04:28:02.747Z,99.90
2018-07-23T04:30:30.919Z,99.90
2018-07-23T04:32:59.071Z,99.90
2018-07-23T04:35:27.291Z,99.90
2018-07-23T04:37:55.546Z,99.90
2018-07-23T04:40:24.069Z,99.90
2018-07-23T04:42:52.696Z,99.90
2018-07-23T04:45:20.835Z,99.90
2018-07-23T04:47:49.012Z,99.90
2018-07-23T04:50:17.190Z,99.90
2018-07-23T04:52:45.348Z,99.90
2018-07-23T04:55:13.529Z,99.90
2018-07-23T04:57:41.691Z,99.90
2018-07-23T05:00:09.851Z,99.90
2018-07-23T05:02:38.006Z,99.90
2018-07-23T05:05:06.175Z,99.90
2018-07-23T05:07:34.342Z,99.90
2018-07-23T05:10:02.570Z,99.90
2018-07-23T05:12:30.735Z,99.90
2018-07-23T05:14:58.886Z,99.90
2018-07-23T05:17:27.065Z,99.90
2018-07-23T05:19:55.324Z,99.90
2018-07-23T05:22:23.499Z,99.90
2018-07-23T05:24:51.659Z,99.90
2018-07-23T05:27:19.806Z,99.90
2018-07-23T05:29:47.963Z,99.90
2018-07-23T05:32:16.231Z,99.90
2018-07-23T05:34:44.522Z,99.90
2018-07-23T05:37:12.705Z,99.90
2018-07-23T05:39:40.878Z,99.90
2018-07-23T05:42:09.050Z,99.90
2018-07-23T05:44:37.204Z,99.90
2018-07-23T05:47:05.353Z,99.90
2018-07-23T05:49:33.670Z,99.90
2018-07-23T05:52:01.823Z,99.90
2018-07-23T05:54:30.111Z,99.90
2018-07-23T05:56:58.304Z,99.90
2018-07-23T05:59:26.506Z,99.90
2018-07-23T06:01:54.679Z,99.90
2018-07-23T06:04:23.033Z,99.90
2018-07-23T06:06:51.358Z,99.90
2018-07-23T06:09:19.471Z,99.90
2018-07-23T06:11:47.611Z,99.90
2018-07-23T06:14:15.795Z,99.90
2018-07-23T06:16:43.959Z,99.90
2018-07-23T06:19:12.107Z,99.90
2018-07-23T06:21:40.515Z,99.90
2018-07-23T06:24:08.662Z,99.90
2018-07-23T06:26:36.820Z,99.90
2018-07-23T06:29:05.114Z,99.90
2018-07-23T06:31:33.721Z,99.90
2018-07-23T06:34:01.861Z,99.90
2018-07-23T06:36:30.019Z,99.90
2018-07-23T06:38:58.198Z,99.90
2018-07-23T06:41:26.361Z,99.90
2018-07-23T06:43:54.509Z,99.90
2018-07-23T06:46:22.667Z,99.90
2018-07-23T06:48:50.911Z,99.90
2018-07-23T06:51:19.067Z,99.90
2018-07-23T06:53:47.222Z,99.90
2018-07-23T06:56:15.379Z,99.90
2018-07-23T06:58:43.532Z,99.90
2018-07-23T07:01:11.717Z,99.90
2018-07-23T07:03:39.875Z,99.90
2018-07-23T07:06:08.015Z,99.90
2018-07-23T07:08:36.175Z,99.90
2018-07-23T07:11:04.327Z,99.90
2018-07-23T07:13:32.731Z,99.90
2018-07-23T07:16:00.809Z,99.90
2018-07-23T07:18:28.955Z,99.90
2018-07-23T07:20:57.111Z,99.90
2018-07-23T07:23:25.294Z,99.90
2018-07-23T07:25:53.452Z,99.90
2018-07-23T07:28:21.615Z,99.90
2018-07-23T07:30:49.795Z,99.80
2018-07-23T07:33:17.969Z,99.90
2018-07-23T07:35:46.144Z,99.80
2018-07-23T07:38:14.303Z,99.50
2018-07-23T07:40:42.451Z,99.20
2018-07-23T07:43:10.619Z,99.30
2018-07-23T07:45:38.759Z,99.30
2018-07-23T07:48:07.005Z,98.60
2018-07-23T07:50:35.186Z,98.30
2018-07-23T07:53:03.324Z,98.40
2018-07-23T07:55:31.834Z,98.30
2018-07-23T07:57:59.992Z,97.10
2018-07-23T08:00:28.171Z,95.20
2018-07-23T08:02:56.332Z,93.40
2018-07-23T08:05:24.474Z,92.30
2018-07-23T08:07:52.630Z,92.00
2018-07-23T08:10:20.798Z,91.60
2018-07-23T08:12:48.937Z,92.00
2018-07-23T08:15:17.151Z,91.60
2018-07-23T08:17:45.385Z,91.70
2018-07-23T08:20:13.511Z,91.30
2018-07-23T08:22:41.672Z,91.20
2018-07-23T08:25:09.848Z,91.10
2018-07-23T08:27:37.984Z,90.80
2018-07-23T08:30:06.980Z,91.20
2018-07-23T08:32:35.154Z,91.10
2018-07-23T08:35:03.574Z,90.80
2018-07-23T08:37:31.714Z,90.20
2018-07-23T08:39:59.862Z,90.30
2018-07-23T08:42:28.024Z,90.60
2018-07-23T08:44:56.187Z,89.50
2018-07-23T08:47:24.367Z,82.00
2018-07-23T08:49:52.524Z,80.30
2018-07-23T08:52:20.676Z,79.50
2018-07-23T08:54:48.838Z,76.90
2018-07-23T08:57:17.040Z,75.00
2018-07-23T08:59:45.135Z,72.50
2018-07-23T09:02:13.302Z,70.50
2018-07-23T09:04:41.455Z,71.20
2018-07-23T09:07:09.614Z,67.90
2018-07-23T09:09:37.775Z,69.00
2018-07-23T09:12:06.278Z,69.10
2018-07-23T09:14:34.444Z,69.80
2018-07-23T09:17:02.660Z,68.40
2018-07-23T09:19:30.858Z,67.10
2018-07-23T09:21:59.011Z,66.20
2018-07-23T09:24:27.164Z,65.70
2018-07-23T09:26:55.315Z,62.20
2018-07-23T09:29:23.588Z,60.00
2018-07-23T09:31:51.719Z,61.20
2018-07-23T09:34:19.875Z,60.00
2018-07-23T09:36:48.286Z,61.10
2018-07-23T09:39:16.451Z,58.70
2018-07-23T09:41:44.600Z,58.20
2018-07-23T09:44:12.805Z,59.40
2018-07-23T09:46:40.952Z,59.20
2018-07-23T09:49:09.112Z,58.20
2018-07-23T09:51:37.272Z,58.20
2018-07-23T09:54:05.549Z,57.40
2018-07-23T09:56:33.846Z,55.70
2018-07-23T09:59:01.994Z,56.50
2018-07-23T10:01:30.170Z,55.30
2018-07-23T10:03:58.348Z,54.40
2018-07-23T10:06:26.505Z,55.60
2018-07-23T10:08:54.680Z,56.10
2018-07-23T10:11:22.839Z,55.70
2018-07-23T10:13:50.986Z,56.90
2018-07-23T10:16:19.433Z,55.50
2018-07-23T10:18:47.595Z,55.90
2018-07-23T10:21:15.764Z,55.80
2018-07-23T10:23:43.936Z,56.00
2018-07-23T10:26:12.120Z,55.90
2018-07-23T10:28:40.269Z,56.60
2018-07-23T10:31:08.466Z,56.20
2018-07-23T10:36:11.136Z,53.30
2018-07-23T10:38:39.314Z,50.60
2018-07-23T10:41:07.522Z,51.80
2018-07-23T10:43:35.656Z,50.30
2018-07-23T10:46:03.879Z,50.90
2018-07-23T10:48:32.241Z,50.50
2018-07-23T10:51:00.441Z,48.40
2018-07-23T10:53:28.552Z,45.90
2018-07-23T10:55:56.802Z,45.70
2018-07-23T10:58:25.023Z,46.10
2018-07-23T11:00:53.187Z,46.20
2018-07-23T11:03:21.344Z,47.30
2018-07-23T11:05:49.517Z,47.50
2018-07-23T11:08:17.712Z,46.30
2018-07-23T11:10:45.871Z,45.30
2018-07-23T11:13:14.153Z,44.30
2018-07-23T11:15:42.342Z,45.00
2018-07-23T11:18:10.534Z,46.40
2018-07-23T11:20:38.762Z,43.20
2018-07-23T11:23:06.943Z,45.20
2018-07-23T11:25:39.408Z,44.40
2018-07-23T11:28:03.327Z,45.00
2018-07-23T11:30:31.568Z,43.70
2018-07-23T11:32:59.727Z,44.10
2018-07-23T11:35:27.923Z,45.60
2018-07-23T11:37:56.069Z,42.70
2018-07-23T11:40:24.459Z,43.60
2018-07-23T11:42:52.764Z,43.60
2018-07-23T11:45:20.984Z,42.90
2018-07-23T11:47:49.071Z,41.30
2018-07-23T11:50:17.279Z,39.60
2018-07-23T11:52:45.444Z,40.30
2018-07-23T11:55:13.937Z,39.90
2018-07-23T11:57:42.403Z,42.00
2018-07-23T12:00:10.560Z,40.50
2018-07-23T12:02:38.721Z,43.10
2018-07-23T12:05:06.895Z,42.90
2018-07-23T12:07:35.065Z,41.60
2018-07-23T12:10:03.265Z,42.20
2018-07-23T12:12:31.414Z,39.60
2018-07-23T12:14:59.626Z,39.40
2018-07-23T12:17:27.847Z,38.80
2018-07-23T12:19:55.940Z,39.50
2018-07-23T12:22:24.095Z,39.40
2018-07-23T12:24:52.291Z,39.20
2018-07-23T12:27:20.451Z,37.60
2018-07-23T12:29:48.601Z,36.50
2018-07-23T12:32:16.806Z,37.20
2018-07-23T12:34:45.076Z,37.90
2018-07-23T12:37:13.218Z,37.50
2018-07-23T12:39:41.457Z,36.80
2018-07-23T12:42:09.578Z,38.60
2018-07-23T12:44:37.763Z,39.30
2018-07-23T12:47:06.162Z,37.70
2018-07-23T12:49:34.300Z,39.00
2018-07-23T12:52:02.491Z,39.00
2018-07-23T12:54:30.705Z,37.80
2018-07-23T12:56:58.902Z,35.90
2018-07-23T12:59:27.056Z,34.40
2018-07-23T13:01:55.210Z,34.20
2018-07-23T13:04:23.430Z,35.00
2018-07-23T13:06:51.707Z,35.10
2018-07-23T13:09:19.892Z,33.40
2018-07-23T13:11:48.027Z,34.20
2018-07-23T13:14:16.255Z,35.20
2018-07-23T13:16:44.415Z,33.60
2018-07-23T13:19:12.610Z,34.20
2018-07-23T13:21:40.827Z,33.70
2018-07-23T13:24:09.005Z,35.10
2018-07-23T13:26:37.190Z,35.50
2018-07-23T13:29:05.565Z,35.60
2018-07-23T13:31:33.730Z,35.30
2018-07-23T13:34:01.943Z,35.70
2018-07-23T13:36:30.191Z,36.20
2018-07-23T13:38:58.339Z,33.50
2018-07-23T13:41:26.502Z,34.30
2018-07-23T13:43:54.659Z,37.30
2018-07-23T13:46:22.863Z,38.60
2018-07-23T13:48:51.131Z,39.10
2018-07-23T13:51:19.298Z,40.50
2018-07-23T13:53:47.449Z,40.10
2018-07-23T13:56:15.601Z,40.20
2018-07-23T13:58:43.870Z,39.40
2018-07-23T14:01:12.136Z,40.00
2018-07-23T14:03:40.235Z,38.80
2018-07-23T14:06:08.404Z,37.30
2018-07-23T14:08:36.554Z,36.50
2018-07-23T14:11:04.696Z,33.90
2018-07-23T14:13:33.142Z,33.30
2018-07-23T14:16:01.337Z,33.20
2018-07-23T14:18:29.488Z,34.20
2018-07-23T14:20:58.192Z,34.50
2018-07-23T14:23:26.458Z,33.50
2018-07-23T14:25:54.672Z,33.00
2018-07-23T14:28:22.883Z,33.30
2018-07-23T14:30:51.030Z,34.40
2018-07-23T14:33:19.211Z,33.90
2018-07-23T14:35:47.383Z,33.60
2018-07-23T14:38:15.533Z,34.20
2018-07-23T14:40:43.738Z,34.20
2018-07-23T14:43:11.899Z,34.60
2018-07-23T14:45:40.055Z,34.50
2018-07-23T14:48:08.288Z,34.20
2018-07-23T14:50:36.571Z,33.90
2018-07-23T14:53:04.724Z,33.10
2018-07-23T14:55:32.886Z,33.50
2018-07-23T14:58:01.041Z,32.00
2018-07-23T15:00:29.192Z,33.60
2018-07-23T15:02:57.350Z,33.00
2018-07-23T15:05:25.607Z,32.90
2018-07-23T15:07:53.794Z,32.40
2018-07-23T15:10:22.197Z,31.20
2018-07-23T15:12:50.400Z,30.80
2018-07-23T15:15:18.806Z,32.60
2018-07-23T15:17:47.011Z,31.90
2018-07-23T15:20:15.170Z,32.20
2018-07-23T15:22:43.442Z,33.20
2018-07-23T15:25:11.627Z,33.70
2018-07-23T15:27:39.818Z,33.00
2018-07-23T15:30:07.994Z,32.40
2018-07-23T15:32:36.151Z,30.70
2018-07-23T15:35:04.477Z,31.70
2018-07-23T15:37:32.935Z,31.60
2018-07-23T15:40:01.096Z,30.80
2018-07-23T15:42:29.250Z,32.80
2018-07-23T15:44:57.634Z,31.70
2018-07-23T15:47:25.583Z,31.30
2018-07-23T15:49:53.863Z,32.00
2018-07-23T15:52:22.044Z,30.80
2018-07-23T15:54:50.220Z,31.20
2018-07-23T15:57:18.376Z,30.20
2018-07-23T15:59:46.531Z,30.10
2018-07-23T16:02:14.671Z,30.20
2018-07-23T16:04:42.846Z,31.50
2018-07-23T16:07:11.032Z,32.00
2018-07-23T16:09:39.186Z,32.40
2018-07-23T16:12:07.338Z,33.20
2018-07-23T16:14:35.595Z,33.10
2018-07-23T16:17:03.758Z,33.40
2018-07-23T16:19:31.895Z,33.40
2018-07-23T16:22:00.069Z,34.20
2018-07-23T16:24:28.222Z,34.10
2018-07-23T16:26:56.371Z,34.00
2018-07-23T16:29:24.539Z,34.40
2018-07-23T16:31:52.846Z,34.20
2018-07-23T16:34:20.998Z,34.60
2018-07-23T16:36:49.157Z,35.20
2018-07-23T16:39:17.338Z,35.40
2018-07-23T16:41:45.486Z,35.70
2018-07-23T16:44:13.686Z,35.70
2018-07-23T16:46:41.855Z,36.00
2018-07-23T16:49:09.986Z,36.80
2018-07-23T16:51:38.153Z,38.60
2018-07-23T16:54:06.323Z,39.50
2018-07-23T16:56:34.547Z,40.60
2018-07-23T16:59:02.798Z,42.20
2018-07-23T17:01:30.974Z,43.70
2018-07-23T17:03:59.132Z,45.00
2018-07-23T17:06:27.772Z,46.40
2018-07-23T17:08:55.939Z,47.20
2018-07-23T17:11:24.093Z,48.00
2018-07-23T17:13:52.260Z,48.70
2018-07-23T17:16:20.418Z,50.20
2018-07-23T17:18:48.714Z,51.50
2018-07-23T17:21:16.853Z,52.40
2018-07-23T17:23:45.058Z,53.40
2018-07-23T17:26:13.432Z,54.20
2018-07-23T17:28:41.727Z,55.20
2018-07-23T17:31:09.902Z,55.80
2018-07-23T17:33:38.053Z,56.20
2018-07-23T17:36:06.295Z,56.60
2018-07-23T17:38:34.461Z,57.50
2018-07-23T17:41:02.743Z,58.20
2018-07-23T17:43:30.895Z,59.40
2018-07-23T17:45:59.042Z,59.60
2018-07-23T17:48:27.203Z,60.30
2018-07-23T17:50:55.387Z,60.80
2018-07-23T17:53:23.598Z,61.70
2018-07-23T17:55:51.819Z,62.20
2018-07-23T17:58:19.963Z,62.90
2018-07-23T18:00:48.216Z,64.30
2018-07-23T18:03:16.457Z,65.40
2018-07-23T18:05:45.532Z,66.20
2018-07-23T18:08:13.711Z,66.70
2018-07-23T18:13:12.287Z,68.60
2018-07-23T18:15:40.606Z,71.00
2018-07-23T18:18:08.817Z,72.00
2018-07-23T18:20:36.991Z,72.80
2018-07-23T18:23:05.163Z,73.70
2018-07-23T18:25:33.323Z,74.60
2018-07-23T18:28:01.530Z,75.40
2018-07-23T18:30:29.727Z,76.40
2018-07-23T18:32:57.915Z,77.40
2018-07-23T18:35:26.355Z,77.80
2018-07-23T18:37:54.680Z,78.80
2018-07-23T18:40:22.976Z,80.50
2018-07-23T18:42:51.126Z,82.20
2018-07-23T18:45:19.338Z,83.50
2018-07-23T18:47:47.835Z,85.30
2018-07-23T18:50:15.957Z,86.90
2018-07-23T18:52:44.129Z,87.60
2018-07-23T18:55:12.371Z,89.10
2018-07-23T18:57:40.611Z,90.00
2018-07-23T19:00:08.925Z,90.30
2018-07-23T19:02:37.049Z,90.40
2018-07-23T19:05:05.666Z,90.70
2018-07-23T19:07:33.845Z,91.40
2018-07-23T19:10:02.075Z,91.40
2018-07-23T19:12:30.258Z,91.50
2018-07-23T19:14:58.460Z,91.70
2018-07-23T19:17:26.664Z,92.10
2018-07-23T19:19:55.313Z,92.30
2018-07-23T19:22:23.741Z,92.50
2018-07-23T19:24:52.032Z,93.70
2018-07-23T19:27:20.393Z,94.10
2018-07-23T19:29:48.606Z,94.70
2018-07-23T19:32:16.860Z,95.40
2018-07-23T19:34:45.024Z,95.90
2018-07-23T19:37:13.354Z,96.30
2018-07-23T19:39:41.559Z,96.50
2018-07-23T19:42:09.728Z,97.10
2018-07-23T19:44:37.932Z,97.50
2018-07-23T19:47:06.159Z,97.90
2018-07-23T19:49:34.376Z,98.90
2018-07-23T19:52:02.611Z,99.00
2018-07-23T19:54:30.789Z,98.90
2018-07-23T19:56:58.998Z,98.90
2018-07-23T19:59:27.263Z,99.00
2018-07-23T20:01:55.464Z,99.10
2018-07-23T20:04:23.768Z,99.40
2018-07-23T20:06:51.959Z,99.80
2018-07-23T20:09:20.161Z,99.90
2018-07-23T20:11:48.415Z,99.90
2018-07-23T20:14:16.766Z,99.90
2018-07-23T20:16:44.927Z,99.90
2018-07-23T20:19:13.111Z,99.90
2018-07-23T20:21:41.318Z,99.90
2018-07-23T20:24:09.501Z,99.90
2018-07-23T20:26:37.671Z,99.90
2018-07-23T20:29:05.893Z,99.90
2018-07-23T20:34:02.052Z,99.90
2018-07-23T20:36:30.388Z,99.90
2018-07-23T20:41:26.508Z,99.90
2018-07-23T20:43:54.686Z,99.90
2018-07-23T20:46:22.843Z,99.90
2018-07-23T20:48:51.066Z,99.90
2018-07-23T20:51:19.319Z,99.90
2018-07-23T20:53:47.479Z,99.90
2018-07-23T20:56:15.670Z,99.90
2018-07-23T20:58:43.831Z,99.90
2018-07-23T21:01:12.030Z,99.90
2018-07-23T21:03:40.304Z,99.90
2018-07-23T21:06:08.487Z,99.90
2018-07-23T21:08:36.810Z,99.90
2018-07-23T21:11:04.993Z,99.90
2018-07-23T21:13:33.219Z,99.90
2018-07-23T21:16:01.406Z,99.90
2018-07-23T21:18:29.608Z,99.90
2018-07-23T21:20:57.788Z,99.90
2018-07-23T21:23:25.970Z,99.90
2018-07-23T21:25:54.164Z,99.90
2018-07-23T21:28:22.359Z,99.90
2018-07-23T21:30:50.630Z,99.90
2018-07-23T21:33:18.863Z,99.90
2018-07-23T21:35:47.019Z,99.90
2018-07-23T21:38:15.220Z,99.90
2018-07-23T21:40:43.474Z,99.90
2018-07-23T21:43:11.643Z,99.90
2018-07-23T21:45:39.810Z,99.90
2018-07-23T21:48:08.043Z,99.90
2018-07-23T21:50:36.205Z,99.90
2018-07-23T21:53:04.392Z,99.90
2018-07-23T21:55:32.574Z,99.90
2018-07-23T21:58:00.747Z,99.90
2018-07-23T22:00:29.011Z,99.90
2018-07-23T22:02:57.198Z,99.90
2018-07-23T22:05:25.408Z,99.90
2018-07-23T22:07:53.567Z,99.90
2018-07-23T22:10:21.778Z,99.90
2018-07-23T22:12:50.481Z,99.90
2018-07-23T22:15:18.603Z,99.90
2018-07-23T22:17:46.837Z,99.90
2018-07-23T22:20:15.019Z,99.90
2018-07-23T22:22:43.198Z,99.90
2018-07-23T22:25:11.394Z,99.90
2018-07-23T22:27:39.558Z,99.90
2018-07-23T22:30:07.828Z,99.90
2018-07-23T22:32:36.024Z,99.90
2018-07-23T22:35:04.291Z,99.90
2018-07-23T22:37:32.467Z,99.90
2018-07-23T22:40:00.634Z,99.90
2018-07-23T22:42:28.820Z,99.90
2018-07-23T22:44:57.016Z,99.90
2018-07-23T22:47:25.191Z,99.90
2018-07-23T22:49:53.378Z,99.90
2018-07-23T22:52:21.542Z,99.90
2018-07-23T22:54:49.740Z,99.90
2018-07-23T22:57:17.947Z,99.90
2018-07-23T22:59:46.116Z,99.90
2018-07-23T23:02:14.298Z,99.90
2018-07-23T23:04:42.512Z,99.90
2018-07-23T23:07:10.688Z,99.90
2018-07-23T23:09:38.840Z,99.90
2018-07-23T23:12:07.022Z,99.90
2018-07-23T23:14:35.186Z,99.90
2018-07-23T23:17:03.355Z,99.90
2018-07-23T23:19:31.519Z,99.90
2018-07-23T23:21:59.669Z,99.90
2018-07-23T23:24:27.850Z,99.90
2018-07-23T23:26:56.031Z,99.90
2018-07-23T23:29:24.215Z,99.90
2018-07-23T23:31:52.374Z,99.90
2018-07-23T23:34:20.731Z,99.90
2018-07-23T23:36:48.930Z,99.90
2018-07-23T23:39:17.111Z,99.90
2018-07-23T23:41:45.311Z,99.90
2018-07-23T23:44:13.540Z,99.90
2018-07-23T23:46:41.748Z,99.90
2018-07-23T23:49:09.895Z,99.90
2018-07-23T23:51:38.051Z,99.90
2018-07-23T23:54:06.268Z,99.90
2018-07-23T23:56:34.462Z,99.90
2018-07-23T23:59:02.634Z,99.90
